createdAt,value
2023-04-01T00:01:05.460Z,99285.44
2023-04-01T00:03:34.371Z,99285.94
2023-04-01T00:06:01.774Z,99286.63
2023-04-01T00:08:28.696Z,99295.38
2023-04-01T00:10:55.538Z,99292.19
2023-04-01T00:13:22.314Z,99290.63
2023-04-01T00:15:49.159Z,99296.25
2023-04-01T00:18:15.943Z,99298.22
2023-04-01T00:20:48.252Z,99301.94
2023-04-01T00:23:15.510Z,99296.19
2023-04-01T00:25:42.195Z,99299.16
2023-04-01T00:28:08.881Z,99299.91
2023-04-01T00:30:37.536Z,99297.81
2023-04-01T00:33:04.490Z,99300.81
2023-04-01T00:35:31.205Z,99303.84
2023-04-01T00:37:58.305Z,99303.66
2023-04-01T00:40:32.914Z,99298.72
2023-04-01T00:42:59.431Z,99310.72
2023-04-01T00:45:31.120Z,99309.06
2023-04-01T00:48:01.133Z,99304.03
2023-04-01T00:50:28.432Z,99307.06
2023-04-01T00:52:54.946Z,99307.38
2023-04-01T00:55:22.790Z,99311.00
2023-04-01T00:57:50.734Z,99319.88
2023-04-01T01:00:18.321Z,99314.72
2023-04-01T01:02:47.386Z,99316.72
2023-04-01T01:05:15.879Z,99319.19
2023-04-01T01:08:16.119Z,99320.00
2023-04-01T01:10:43.525Z,99323.47
2023-04-01T01:13:27.009Z,99318.25
2023-04-01T01:16:07.974Z,99328.22
2023-04-01T01:18:50.574Z,99322.69
2023-04-01T01:21:54.703Z,99328.22
2023-04-01T01:24:32.639Z,99336.75
2023-04-01T01:27:12.709Z,99333.38
2023-04-01T01:30:04.019Z,99332.50
2023-04-01T01:32:39.518Z,99337.72
2023-04-01T01:35:50.892Z,99331.56
2023-04-01T01:38:20.841Z,99341.91
2023-04-01T01:40:52.785Z,99336.03
2023-04-01T01:43:22.719Z,99343.78
2023-04-01T01:45:52.866Z,99341.19
2023-04-01T01:48:20.873Z,99343.69
2023-04-01T01:50:48.718Z,99350.13
2023-04-01T01:53:15.317Z,99349.25
2023-04-01T01:55:44.692Z,99346.56
2023-04-01T01:58:11.214Z,99351.78
2023-04-01T02:00:38.083Z,99354.66
2023-04-01T02:03:05.593Z,99356.34
2023-04-01T02:05:32.876Z,99358.16
2023-04-01T02:08:07.682Z,99360.69
2023-04-01T02:10:37.165Z,99367.69
2023-04-01T02:13:09.032Z,99371.97
2023-04-01T02:15:39.839Z,99376.34
2023-04-01T02:18:06.987Z,99370.28
2023-04-01T02:20:33.639Z,99368.53
2023-04-01T02:23:00.736Z,99375.47
2023-04-01T02:25:35.444Z,99391.06
2023-04-01T02:28:05.276Z,99391.94
2023-04-01T02:30:33.478Z,99393.66
2023-04-01T02:33:00.319Z,99393.66
2023-04-01T02:35:27.407Z,99408.31
2023-04-01T02:37:55.378Z,99406.53
2023-04-01T02:40:22.266Z,99407.44
2023-04-01T02:42:48.821Z,99406.63
2023-04-01T02:45:15.805Z,99413.44
2023-04-01T02:47:42.546Z,99423.00
2023-04-01T02:50:09.871Z,99421.25
2023-04-01T02:52:36.558Z,99424.66
2023-04-01T02:55:03.911Z,99431.53
2023-04-01T02:57:30.698Z,99430.81
2023-04-01T02:59:57.295Z,99422.94
2023-04-01T03:02:23.786Z,99437.59
2023-04-01T03:04:50.351Z,99445.44
2023-04-01T03:07:17.181Z,99443.59
2023-04-01T03:09:43.691Z,99443.56
2023-04-01T03:12:10.244Z,99449.69
2023-04-01T03:14:36.766Z,99455.78
2023-04-01T03:17:03.259Z,99456.44
2023-04-01T03:19:29.898Z,99450.47
2023-04-01T03:21:56.344Z,99453.00
2023-04-01T03:24:22.893Z,99455.50
2023-04-01T03:26:49.510Z,99459.88
2023-04-01T03:29:17.004Z,99460.78
2023-04-01T03:31:43.731Z,99458.91
2023-04-01T03:34:10.665Z,99469.38
2023-04-01T03:36:37.583Z,99463.31
2023-04-01T03:39:04.807Z,99478.75
2023-04-01T03:41:31.799Z,99474.53
2023-04-01T03:43:58.339Z,99480.47
2023-04-01T03:46:25.159Z,99487.22
2023-04-01T03:48:51.719Z,99483.66
2023-04-01T03:51:18.250Z,99491.44
2023-04-01T03:53:44.788Z,99494.13
2023-04-01T03:56:11.404Z,99497.44
2023-04-01T03:58:38.116Z,99501.88
2023-04-01T04:01:05.378Z,99504.59
2023-04-01T04:03:32.377Z,99510.41
2023-04-01T04:05:58.946Z,99503.41
2023-04-01T04:08:25.506Z,99504.41
2023-04-01T04:10:58.236Z,99504.25
2023-04-01T04:13:24.694Z,99505.28
2023-04-01T04:15:51.192Z,99501.94
2023-04-01T04:18:17.703Z,99515.75
2023-04-01T04:20:46.862Z,99526.88
2023-04-01T04:23:13.308Z,99525.94
2023-04-01T04:25:39.774Z,99517.25
2023-04-01T04:28:06.279Z,99535.31
2023-04-01T04:30:32.777Z,99530.38
2023-04-01T04:32:59.252Z,99526.97
2023-04-01T04:35:25.760Z,99535.28
2023-04-01T04:37:52.213Z,99545.75
2023-04-01T04:40:18.676Z,99550.81
2023-04-01T04:42:45.575Z,99546.16
2023-04-01T04:45:13.678Z,99548.19
2023-04-01T04:47:40.331Z,99560.63
2023-04-01T04:50:07.706Z,99563.31
2023-04-01T04:52:34.159Z,99563.44
2023-04-01T04:55:00.846Z,99560.06
2023-04-01T04:57:27.397Z,99564.31
2023-04-01T04:59:53.974Z,99570.38
2023-04-01T05:02:20.601Z,99568.59
2023-04-01T05:04:47.092Z,99572.38
2023-04-01T05:07:13.576Z,99584.16
2023-04-01T05:09:40.085Z,99578.41
2023-04-01T05:12:06.675Z,99585.91
2023-04-01T05:14:33.110Z,99588.50
2023-04-01T05:16:59.703Z,99590.38
2023-04-01T05:19:26.254Z,99599.94
2023-04-01T05:21:53.929Z,99596.91
2023-04-01T05:24:20.389Z,99603.91
2023-04-01T05:26:46.995Z,99604.91
2023-04-01T05:29:13.509Z,99600.81
2023-04-01T05:31:40.053Z,99609.13
2023-04-01T05:34:06.537Z,99613.00
2023-04-01T05:36:33.052Z,99615.06
2023-04-01T05:38:59.496Z,99618.59
2023-04-01T05:41:26.166Z,99616.69
2023-04-01T05:43:52.591Z,99634.72
2023-04-01T05:46:19.097Z,99625.88
2023-04-01T05:48:45.613Z,99634.47
2023-04-01T05:51:15.895Z,99639.91
2023-04-01T05:53:43.054Z,99649.19
2023-04-01T05:56:10.581Z,99648.78
2023-04-01T05:58:37.864Z,99647.94
2023-04-01T06:01:12.737Z,99655.41
2023-04-01T06:03:42.479Z,99655.06
2023-04-01T06:06:30.439Z,99656.84
2023-04-01T06:08:59.168Z,99648.69
2023-04-01T06:11:52.533Z,99657.56
2023-04-01T06:14:32.083Z,99664.75
2023-04-01T06:17:11.461Z,99669.47
2023-04-01T06:20:06.364Z,99664.41
2023-04-01T06:22:48.233Z,99670.66
2023-04-01T06:25:44.002Z,99678.09
2023-04-01T06:28:47.562Z,99694.50
2023-04-01T06:31:26.419Z,99691.88
2023-04-01T06:33:58.871Z,99694.09
2023-04-01T06:36:48.547Z,99702.09
2023-04-01T06:39:38.440Z,99704.81
2023-04-01T06:42:15.325Z,99707.25
2023-04-01T06:44:51.218Z,99714.81
2023-04-01T06:47:52.590Z,99717.50
2023-04-01T06:50:26.404Z,99720.25
2023-04-01T06:53:23.283Z,99724.25
2023-04-01T06:56:20.055Z,99724.16
2023-04-01T06:58:52.712Z,99733.94
2023-04-01T07:01:31.050Z,99736.38
2023-04-01T07:04:04.895Z,99741.13
2023-04-01T07:06:42.527Z,99738.88
2023-04-01T07:09:17.206Z,99744.13
2023-04-01T07:11:44.315Z,99745.84
2023-04-01T07:14:33.625Z,99752.16
2023-04-01T07:17:10.023Z,99767.41
2023-04-01T07:19:48.886Z,99756.16
2023-04-01T07:22:27.365Z,99771.03
2023-04-01T07:24:54.977Z,99772.72
2023-04-01T07:27:21.614Z,99773.91
2023-04-01T07:29:48.433Z,99777.66
2023-04-01T07:32:21.608Z,99786.56
2023-04-01T07:35:25.677Z,99783.25
2023-04-01T07:38:12.473Z,99794.22
2023-04-01T07:40:38.916Z,99794.78
2023-04-01T07:43:19.971Z,99809.97
2023-04-01T07:45:56.676Z,99806.31
2023-04-01T07:48:49.505Z,99801.78
2023-04-01T07:51:18.896Z,99815.31
2023-04-01T07:54:06.933Z,99825.88
2023-04-01T07:56:42.531Z,99820.06
2023-04-01T07:59:35.244Z,99829.00
2023-04-01T08:02:06.430Z,99838.19
2023-04-01T08:04:43.149Z,99838.53
2023-04-01T08:07:26.222Z,99846.78
2023-04-01T08:09:57.638Z,99843.16
2023-04-01T08:12:46.955Z,99841.16
2023-04-01T08:15:22.392Z,99853.28
2023-04-01T08:18:06.090Z,99848.47
2023-04-01T08:20:38.398Z,99861.69
2023-04-01T08:23:12.762Z,99854.91
2023-04-01T08:25:53.820Z,99871.88
2023-04-01T08:28:40.620Z,99865.63
2023-04-01T08:31:11.883Z,99875.22
2023-04-01T08:33:39.086Z,99882.31
2023-04-01T08:36:16.864Z,99884.47
2023-04-01T08:39:05.842Z,99881.56
2023-04-01T08:41:47.495Z,99884.47
2023-04-01T08:44:28.548Z,99894.38
2023-04-01T08:47:13.686Z,99898.34
2023-04-01T08:49:43.270Z,99904.38
2023-04-01T08:52:22.636Z,99921.97
2023-04-01T08:55:14.549Z,99906.91
2023-04-01T08:57:48.038Z,99913.28
2023-04-01T09:00:47.980Z,99920.75
2023-04-01T09:03:37.799Z,99922.03
2023-04-01T09:06:32.202Z,99925.31
2023-04-01T09:09:18.550Z,99933.25
2023-04-01T09:12:04.592Z,99933.59
2023-04-01T09:14:35.285Z,99932.56
2023-04-01T09:17:15.758Z,99927.75
2023-04-01T09:19:58.516Z,99942.34
2023-04-01T09:22:34.816Z,99947.84
2023-04-01T09:25:32.185Z,99954.44
2023-04-01T09:28:09.884Z,99959.88
2023-04-01T09:30:58.315Z,99971.63
2023-04-01T09:33:52.883Z,99966.56
2023-04-01T09:36:22.721Z,99967.06
2023-04-01T09:38:55.294Z,99972.31
2023-04-01T09:41:43.307Z,99968.81
2023-04-01T09:44:21.338Z,99985.56
2023-04-01T09:47:25.500Z,99985.63
2023-04-01T09:50:07.137Z,99994.69
2023-04-01T09:52:48.348Z,100000.31
2023-04-01T09:55:51.868Z,100011.78
2023-04-01T09:58:51.767Z,100010.09
2023-04-01T10:01:37.281Z,100021.19
2023-04-01T10:04:24.948Z,100021.38
2023-04-01T10:06:52.353Z,100022.59
2023-04-01T10:10:10.102Z,100032.75
2023-04-01T10:13:01.361Z,100040.81
2023-04-01T10:16:05.357Z,100039.38
2023-04-01T10:19:16.920Z,100051.41
2023-04-01T10:22:10.933Z,100058.69
2023-04-01T10:25:00.335Z,100053.31
2023-04-01T10:27:36.151Z,100056.78
2023-04-01T10:30:56.854Z,100048.25
2023-04-01T10:34:14.541Z,100057.47
2023-04-01T10:36:54.908Z,100064.72
2023-04-01T10:39:36.569Z,100068.41
2023-04-01T10:42:21.939Z,100079.53
2023-04-01T10:45:03.576Z,100077.22
2023-04-01T10:47:57.994Z,100082.22
2023-04-01T10:50:43.236Z,100086.03
2023-04-01T10:53:24.028Z,100082.41
2023-04-01T10:56:10.443Z,100091.94
2023-04-01T10:58:52.266Z,100100.72
2023-04-01T11:01:21.509Z,100098.81
2023-04-01T11:04:15.737Z,100102.63
2023-04-01T11:07:10.776Z,100101.22
2023-04-01T11:10:15.669Z,100109.44
2023-04-01T11:13:03.922Z,100110.63
2023-04-01T11:15:54.138Z,100112.97
2023-04-01T11:18:49.757Z,100124.75
2023-04-01T11:21:41.386Z,100127.59
2023-04-01T11:24:45.878Z,100134.78
2023-04-01T11:27:46.474Z,100134.34
2023-04-01T11:30:35.478Z,100132.03
2023-04-01T11:33:06.193Z,100138.94
2023-04-01T11:35:44.835Z,100149.59
2023-04-01T11:38:33.109Z,100149.88
2023-04-01T11:41:26.486Z,100150.22
2023-04-01T11:44:19.234Z,100161.03
2023-04-01T11:47:23.349Z,100167.41
2023-04-01T11:50:15.477Z,100161.16
2023-04-01T11:53:03.364Z,100170.91
2023-04-01T11:55:50.474Z,100187.84
2023-04-01T11:58:48.872Z,100185.59
2023-04-01T12:01:27.944Z,100182.25
2023-04-01T12:04:15.910Z,100196.66
2023-04-01T12:07:07.430Z,100194.56
2023-04-01T12:09:57.686Z,100193.44
2023-04-01T12:12:54.106Z,100207.78
2023-04-01T12:15:42.001Z,100201.88
2023-04-01T12:18:18.379Z,100213.66
2023-04-01T12:20:57.667Z,100217.13
2023-04-01T12:24:03.371Z,100217.44
2023-04-01T12:27:07.404Z,100248.03
2023-04-01T12:29:51.522Z,100237.94
2023-04-01T12:32:48.285Z,100246.75
2023-04-01T12:35:25.829Z,100240.22
2023-04-01T12:37:59.158Z,100249.09
2023-04-01T12:40:33.013Z,100263.19
2023-04-01T12:43:16.586Z,100263.56
2023-04-01T12:45:51.975Z,100263.25
2023-04-01T12:48:21.466Z,100277.94
2023-04-01T12:50:54.163Z,100278.25
2023-04-01T12:53:27.406Z,100267.94
2023-04-01T12:55:53.983Z,100280.63
2023-04-01T12:59:01.028Z,100283.81
2023-04-01T13:01:53.036Z,100294.16
2023-04-01T13:04:56.854Z,100290.28
2023-04-01T13:07:32.546Z,100295.72
2023-04-01T13:10:37.232Z,100298.91
2023-04-01T13:13:04.421Z,100305.63
2023-04-01T13:15:33.829Z,100308.22
2023-04-01T13:18:14.277Z,100310.72
2023-04-01T13:20:45.813Z,100309.75
2023-04-01T13:23:34.272Z,100319.31
2023-04-01T13:26:20.119Z,100317.53
2023-04-01T13:29:27.173Z,100322.78
2023-04-01T13:32:43.272Z,100326.75
2023-04-01T13:35:19.625Z,100326.09
2023-04-01T13:37:53.930Z,100338.47
2023-04-01T13:40:29.922Z,100332.22
2023-04-01T13:43:01.326Z,100351.44
2023-04-01T13:45:44.309Z,100355.56
2023-04-01T13:48:29.616Z,100347.91
2023-04-01T13:51:23.911Z,100357.03
2023-04-01T13:54:05.474Z,100354.25
2023-04-01T13:56:34.922Z,100362.25
2023-04-01T13:59:07.857Z,100365.31
2023-04-01T14:01:51.221Z,100380.06
2023-04-01T14:04:49.281Z,100369.38
2023-04-01T14:07:43.980Z,100384.34
2023-04-01T14:10:36.651Z,100394.06
2023-04-01T14:13:15.483Z,100388.50
2023-04-01T14:15:57.991Z,100394.81
2023-04-01T14:18:42.681Z,100400.28
2023-04-01T14:21:21.180Z,100393.63
2023-04-01T14:23:56.230Z,100401.22
2023-04-01T14:26:43.095Z,100402.47
2023-04-01T14:29:18.596Z,100412.03
2023-04-01T14:32:07.889Z,100422.75
2023-04-01T14:34:53.149Z,100419.56
2023-04-01T14:37:50.085Z,100434.38
2023-04-01T14:40:19.849Z,100428.50
2023-04-01T14:43:14.242Z,100440.31
2023-04-01T14:45:56.295Z,100435.78
2023-04-01T14:48:35.312Z,100443.19
2023-04-01T14:51:30.772Z,100439.16
2023-04-01T14:54:17.948Z,100446.97
2023-04-01T14:56:48.637Z,100455.50
2023-04-01T14:59:21.525Z,100463.00
2023-04-01T15:01:59.862Z,100475.94
2023-04-01T15:04:42.448Z,100469.00
2023-04-01T15:07:46.807Z,100468.03
2023-04-01T15:10:41.130Z,100476.84
2023-04-01T15:13:15.291Z,100484.97
2023-04-01T15:16:09.727Z,100490.94
2023-04-01T15:19:01.005Z,100490.75
2023-04-01T15:21:39.010Z,100504.94
2023-04-01T15:24:09.052Z,100501.59
2023-04-01T15:27:00.392Z,100508.88
2023-04-01T15:29:42.229Z,100510.41
2023-04-01T15:32:21.080Z,100533.72
2023-04-01T15:34:59.431Z,100532.88
2023-04-01T15:37:41.201Z,100521.72
2023-04-01T15:40:19.012Z,100539.72
2023-04-01T15:43:07.478Z,100535.59
2023-04-01T15:45:47.109Z,100538.97
2023-04-01T15:48:46.176Z,100533.59
2023-04-01T15:51:23.386Z,100546.06
2023-04-01T15:54:26.748Z,100558.28
2023-04-01T15:57:11.409Z,100555.78
2023-04-01T15:59:43.882Z,100570.84
2023-04-01T16:03:01.691Z,100567.63
2023-04-01T16:05:53.904Z,100566.16
2023-04-01T16:08:41.739Z,100572.84
2023-04-01T16:11:37.593Z,100569.88
2023-04-01T16:14:48.048Z,100581.63
2023-04-01T16:17:35.969Z,100589.03
2023-04-01T16:20:43.302Z,100584.56
2023-04-01T16:23:34.638Z,100594.81
2023-04-01T16:26:19.311Z,100599.75
2023-04-01T16:29:05.511Z,100604.69
2023-04-01T16:31:51.912Z,100605.13
2023-04-01T16:34:22.505Z,100618.28
2023-04-01T16:36:53.963Z,100623.19
2023-04-01T16:40:08.606Z,100628.00
2023-04-01T16:42:54.393Z,100629.72
2023-04-01T16:45:30.101Z,100649.78
2023-04-01T16:48:01.337Z,100648.97
2023-04-01T16:50:50.140Z,100650.81
2023-04-01T16:53:22.830Z,100657.19
2023-04-01T16:56:01.629Z,100655.97
2023-04-01T16:58:36.220Z,100672.84
2023-04-01T17:01:13.842Z,100676.28
2023-04-01T17:03:53.470Z,100683.66
2023-04-01T17:06:32.450Z,100691.06
2023-04-01T17:09:46.750Z,100692.41
2023-04-01T17:12:32.239Z,100704.94
2023-04-01T17:15:35.685Z,100697.22
2023-04-01T17:18:14.533Z,100711.03
2023-04-01T17:20:41.121Z,100718.91
2023-04-01T17:23:37.169Z,100729.84
2023-04-01T17:26:31.658Z,100724.84
2023-04-01T17:29:16.203Z,100741.72
2023-04-01T17:32:08.891Z,100734.03
2023-04-01T17:34:47.720Z,100752.09
2023-04-01T17:37:32.970Z,100756.06
2023-04-01T17:40:02.393Z,100769.31
2023-04-01T17:42:37.918Z,100766.66
2023-04-01T17:45:12.180Z,100776.72
2023-04-01T17:47:42.945Z,100764.97
2023-04-01T17:50:29.331Z,100785.91
2023-04-01T17:53:20.697Z,100788.59
2023-04-01T17:56:09.478Z,100796.13
2023-04-01T17:58:47.314Z,100797.41
2023-04-01T18:01:25.550Z,100806.66
2023-04-01T18:03:57.924Z,100808.53
2023-04-01T18:06:24.690Z,100817.38
2023-04-01T18:09:00.968Z,100819.09
2023-04-01T18:11:42.488Z,100830.25
2023-04-01T18:14:42.883Z,100845.53
2023-04-01T18:17:43.904Z,100846.91
2023-04-01T18:20:19.780Z,100849.31
2023-04-01T18:22:58.542Z,100858.41
2023-04-01T18:25:31.333Z,100862.09
2023-04-01T18:28:07.179Z,100872.53
2023-04-01T18:30:35.809Z,100865.19
2023-04-01T18:33:19.577Z,100879.56
2023-04-01T18:35:54.134Z,100885.38
2023-04-01T18:38:35.520Z,100891.16
2023-04-01T18:41:15.436Z,100895.56
2023-04-01T18:43:57.321Z,100901.38
2023-04-01T18:46:35.220Z,100893.09
2023-04-01T18:49:09.421Z,100916.44
2023-04-01T18:51:35.963Z,100918.00
2023-04-01T18:54:15.902Z,100913.22
2023-04-01T18:56:44.616Z,100923.47
2023-04-01T18:59:20.529Z,100932.81
2023-04-01T19:02:00.419Z,100932.28
2023-04-01T19:04:58.334Z,100935.03
2023-04-01T19:07:41.647Z,100947.75
2023-04-01T19:10:33.350Z,100958.03
2023-04-01T19:13:22.160Z,100962.09
2023-04-01T19:15:48.698Z,100950.50
2023-04-01T19:18:42.761Z,100970.34
2023-04-01T19:21:15.401Z,100970.22
2023-04-01T19:24:19.729Z,100971.50
2023-04-01T19:27:00.383Z,100982.84
2023-04-01T19:29:26.914Z,100978.81
2023-04-01T19:31:59.468Z,100983.53
2023-04-01T19:34:35.327Z,100984.91
2023-04-01T19:37:23.571Z,100992.09
2023-04-01T19:40:01.275Z,100996.25
2023-04-01T19:42:43.125Z,100994.63
2023-04-01T19:45:54.245Z,101007.47
2023-04-01T19:48:39.613Z,101013.03
2023-04-01T19:51:14.676Z,101022.44
2023-04-01T19:53:59.539Z,101019.38
2023-04-01T19:56:34.721Z,101025.97
2023-04-01T19:59:20.025Z,101036.13
2023-04-01T20:01:51.381Z,101031.34
2023-04-01T20:04:26.042Z,101039.81
2023-04-01T20:07:02.315Z,101042.44
2023-04-01T20:09:47.456Z,101037.28
2023-04-01T20:12:29.040Z,101050.84
2023-04-01T20:14:58.366Z,101060.91
2023-04-01T20:17:45.671Z,101050.03
2023-04-01T20:20:12.123Z,101061.13
2023-04-01T20:22:44.642Z,101071.38
2023-04-01T20:25:22.167Z,101081.03
2023-04-01T20:27:53.113Z,101091.31
2023-04-01T20:30:35.923Z,101086.75
2023-04-01T20:33:26.327Z,101093.38
2023-04-01T20:36:21.517Z,101102.13
2023-04-01T20:39:03.238Z,101100.63
2023-04-01T20:42:00.718Z,101101.91
2023-04-01T20:44:46.597Z,101110.97
2023-04-01T20:47:50.773Z,101113.88
2023-04-01T20:50:31.795Z,101120.22
2023-04-01T20:53:06.484Z,101127.50
2023-04-01T20:55:48.604Z,101123.03
2023-04-01T20:58:50.485Z,101130.91
2023-04-01T21:01:43.512Z,101136.06
2023-04-01T21:04:42.301Z,101142.00
2023-04-01T21:07:33.550Z,101146.47
2023-04-01T21:10:09.082Z,101148.84
2023-04-01T21:12:55.260Z,101158.84
2023-04-01T21:15:34.766Z,101165.28
2023-04-01T21:18:18.141Z,101166.44
2023-04-01T21:20:48.375Z,101172.69
2023-04-01T21:23:21.253Z,101172.72
2023-04-01T21:25:51.730Z,101177.84
2023-04-01T21:28:34.539Z,101186.00
2023-04-01T21:31:12.420Z,101181.59
2023-04-01T21:33:50.386Z,101198.47
2023-04-01T21:36:26.357Z,101188.81
2023-04-01T21:39:12.290Z,101201.34
2023-04-01T21:41:54.337Z,101202.91
2023-04-01T21:44:42.232Z,101209.41
2023-04-01T21:47:26.538Z,101211.25
2023-04-01T21:50:20.657Z,101206.44
2023-04-01T21:52:57.837Z,101218.34
2023-04-01T21:55:24.260Z,101224.84
2023-04-01T21:58:03.001Z,101219.38
2023-04-01T22:01:21.882Z,101234.34
2023-04-01T22:03:48.428Z,101233.38
2023-04-01T22:06:28.072Z,101234.72
2023-04-01T22:09:12.156Z,101241.56
2023-04-01T22:11:46.096Z,101246.00
2023-04-01T22:15:02.421Z,101247.53
2023-04-01T22:17:34.307Z,101257.16
2023-04-01T22:20:15.633Z,101251.88
2023-04-01T22:22:57.865Z,101256.78
2023-04-01T22:25:39.655Z,101265.03
2023-04-01T22:28:10.232Z,101262.66
2023-04-01T22:30:49.878Z,101264.97
2023-04-01T22:33:40.868Z,101271.16
2023-04-01T22:36:34.723Z,101282.13
2023-04-01T22:39:23.721Z,101280.94
2023-04-01T22:42:16.808Z,101297.59
2023-04-01T22:45:01.930Z,101294.06
2023-04-01T22:47:31.282Z,101301.88
2023-04-01T22:50:03.342Z,101309.06
2023-04-01T22:52:35.635Z,101314.44
2023-04-01T22:55:25.830Z,101321.06
2023-04-01T22:58:02.758Z,101316.75
2023-04-01T23:00:55.736Z,101328.09
2023-04-01T23:03:31.789Z,101333.53
2023-04-01T23:06:00.560Z,101326.06
2023-04-01T23:08:42.692Z,101333.38
2023-04-01T23:11:13.699Z,101339.91
2023-04-01T23:13:46.563Z,101340.69
2023-04-01T23:16:13.757Z,101346.78
2023-04-01T23:18:53.315Z,101349.97
2023-04-01T23:21:24.504Z,101360.56
2023-04-01T23:24:03.577Z,101356.94
2023-04-01T23:27:04.278Z,101361.56
2023-04-01T23:29:31.136Z,101365.94
2023-04-01T23:32:01.902Z,101373.69
2023-04-01T23:34:33.796Z,101378.84
2023-04-01T23:37:05.802Z,101386.63
2023-04-01T23:39:39.387Z,101382.66
2023-04-01T23:42:13.903Z,101391.25
2023-04-01T23:44:41.039Z,101385.94
2023-04-01T23:47:10.149Z,101390.69
2023-04-01T23:49:48.932Z,101401.19
2023-04-01T23:52:25.364Z,101409.38
2023-04-01T23:55:20.870Z,101407.81
2023-04-01T23:58:23.180Z,101409.66
